createdAt,value
2019-05-19T00:00:17.413Z,72.42
2019-05-19T00:03:23.503Z,72.88
2019-05-19T00:06:30.133Z,72.67
2019-05-19T00:09:33.695Z,72.58
2019-05-19T00:12:37.257Z,72.62
2019-05-19T00:15:40.871Z,72.64
2019-05-19T00:18:44.498Z,72.72
2019-05-19T00:21:49.689Z,73.12
2019-05-19T00:24:56.187Z,73.32
2019-05-19T00:28:01.880Z,73.13
2019-05-19T00:31:07.034Z,72.68
2019-05-19T00:34:10.571Z,72.72
2019-05-19T00:37:14.145Z,72.39
2019-05-19T00:40:20.358Z,72.33
2019-05-19T00:43:24.095Z,72.06
2019-05-19T00:46:27.696Z,72.31
2019-05-19T00:49:40.997Z,72.01
2019-05-19T00:52:36.638Z,72.23
2019-05-19T00:55:42.383Z,72.18
2019-05-19T00:58:46.674Z,71.96
2019-05-19T01:01:53.122Z,72.32
2019-05-19T01:04:56.699Z,72.45
2019-05-19T01:08:00.253Z,72.41
2019-05-19T01:11:05.649Z,72.45
2019-05-19T01:14:09.259Z,72.41
2019-05-19T01:17:12.854Z,72.67
2019-05-19T01:20:16.698Z,72.05
2019-05-19T01:23:20.286Z,71.83
2019-05-19T01:26:23.911Z,71.31
2019-05-19T01:29:29.046Z,71.00
2019-05-19T01:32:34.118Z,70.92
2019-05-19T01:35:39.269Z,71.13
2019-05-19T01:38:42.828Z,71.61
2019-05-19T01:41:46.456Z,71.80
2019-05-19T01:44:51.617Z,71.27
2019-05-19T01:47:55.185Z,71.08
2019-05-19T01:51:01.507Z,70.68
2019-05-19T01:54:07.272Z,70.23
2019-05-19T01:57:12.165Z,70.41
2019-05-19T02:00:16.359Z,70.49
2019-05-19T02:03:22.481Z,70.77
2019-05-19T02:06:27.721Z,71.12
2019-05-19T02:09:31.326Z,71.10
2019-05-19T02:12:37.719Z,71.41
2019-05-19T02:15:41.256Z,71.73
2019-05-19T02:18:46.385Z,71.89
2019-05-19T02:21:49.913Z,72.15
2019-05-19T02:24:56.669Z,72.03
2019-05-19T02:28:02.313Z,72.80
2019-05-19T02:31:05.548Z,72.81
2019-05-19T02:34:10.611Z,72.96
2019-05-19T02:37:16.993Z,73.30
2019-05-19T02:40:21.034Z,74.11
2019-05-19T02:43:27.689Z,74.29
2019-05-19T02:46:33.276Z,74.13
2019-05-19T02:49:39.474Z,73.92
2019-05-19T02:52:45.394Z,73.44
2019-05-19T02:55:51.566Z,73.65
2019-05-19T02:58:56.195Z,73.88
2019-05-19T03:02:02.934Z,74.14
2019-05-19T03:05:10.811Z,74.34
2019-05-19T03:08:14.459Z,74.30
2019-05-19T03:11:18.030Z,74.55
2019-05-19T03:14:21.639Z,75.11
2019-05-19T03:17:27.138Z,75.21
2019-05-19T03:20:33.620Z,75.36
2019-05-19T03:23:41.370Z,75.26
2019-05-19T03:26:46.515Z,75.19
2019-05-19T03:29:51.734Z,75.47
2019-05-19T03:32:56.897Z,75.41
2019-05-19T03:36:00.480Z,75.57
2019-05-19T03:39:07.514Z,75.16
2019-05-19T03:42:14.191Z,75.28
2019-05-19T03:45:19.213Z,75.26
2019-05-19T03:48:22.759Z,75.00
2019-05-19T03:51:30.848Z,74.86
2019-05-19T03:54:31.702Z,74.53
2019-05-19T03:57:36.874Z,74.70
2019-05-19T04:00:44.477Z,74.16
2019-05-19T04:03:48.303Z,73.91
2019-05-19T04:06:51.865Z,73.52
2019-05-19T04:09:57.000Z,73.43
2019-05-19T04:16:14.635Z,72.04
2019-05-19T04:19:18.182Z,71.81
2019-05-19T04:22:23.433Z,71.99
2019-05-19T04:25:27.038Z,70.91
2019-05-19T04:28:33.659Z,71.24
2019-05-19T04:31:38.946Z,69.86
2019-05-19T04:34:49.501Z,68.51
2019-05-19T04:37:53.061Z,66.83
2019-05-19T04:40:56.800Z,64.14
2019-05-19T04:44:00.417Z,62.57
2019-05-19T04:47:14.385Z,61.62
2019-05-19T04:50:16.613Z,62.33
2019-05-19T04:53:23.532Z,63.37
2019-05-19T04:56:27.183Z,63.22
2019-05-19T04:59:30.886Z,61.93
2019-05-19T05:02:36.410Z,60.72
2019-05-19T05:05:42.854Z,59.73
2019-05-19T05:08:48.285Z,61.80
2019-05-19T05:11:52.174Z,63.93
2019-05-19T05:14:59.831Z,62.74
2019-05-19T05:18:03.649Z,62.90
2019-05-19T05:21:10.093Z,63.13
2019-05-19T05:24:13.762Z,62.28
2019-05-19T05:27:17.385Z,61.33
2019-05-19T05:30:21.033Z,60.20
2019-05-19T05:33:24.656Z,59.53
2019-05-19T05:36:28.469Z,58.51
2019-05-19T05:39:32.193Z,58.35
2019-05-19T05:42:35.917Z,59.25
2019-05-19T05:45:39.562Z,59.95
2019-05-19T05:48:43.240Z,58.14
2019-05-19T05:51:46.915Z,56.25
2019-05-19T05:54:50.622Z,57.73
2019-05-19T05:57:54.287Z,57.69
2019-05-19T06:00:57.987Z,59.59
2019-05-19T06:04:01.668Z,59.07
2019-05-19T06:07:05.367Z,57.42
2019-05-19T06:10:09.389Z,55.55
2019-05-19T06:13:15.264Z,54.70
2019-05-19T06:16:21.455Z,53.64
2019-05-19T06:19:25.377Z,56.16
2019-05-19T06:22:29.056Z,55.27
2019-05-19T06:25:32.782Z,54.50
2019-05-19T06:28:36.390Z,54.15
2019-05-19T06:31:40.047Z,53.97
2019-05-19T06:34:43.688Z,51.68
2019-05-19T06:37:47.389Z,52.30
2019-05-19T06:40:51.219Z,50.45
2019-05-19T06:43:54.848Z,49.68
2019-05-19T06:46:58.517Z,49.23
2019-05-19T06:50:02.411Z,49.23
2019-05-19T06:53:14.132Z,49.90
2019-05-19T06:56:15.842Z,49.94
2019-05-19T06:59:16.827Z,49.81
2019-05-19T07:02:20.695Z,48.48
2019-05-19T07:05:24.505Z,48.84
2019-05-19T07:08:28.211Z,48.56
2019-05-19T07:11:31.882Z,47.65
2019-05-19T07:14:35.556Z,49.09
2019-05-19T07:17:39.279Z,47.69
2019-05-19T07:20:45.346Z,48.85
2019-05-19T07:23:49.013Z,48.54
2019-05-19T07:26:52.680Z,49.24
2019-05-19T07:29:56.303Z,47.24
2019-05-19T07:33:00.258Z,48.17
2019-05-19T07:36:03.890Z,46.54
2019-05-19T07:39:08.193Z,46.39
2019-05-19T07:42:11.870Z,44.13
2019-05-19T07:45:15.783Z,45.57
2019-05-19T07:48:19.507Z,43.57
2019-05-19T07:51:23.179Z,44.77
2019-05-19T07:54:26.850Z,43.70
2019-05-19T07:57:30.529Z,43.63
2019-05-19T08:00:34.160Z,42.96
2019-05-19T08:03:39.532Z,44.00
2019-05-19T08:06:43.292Z,42.03
2019-05-19T08:09:46.969Z,41.37
2019-05-19T08:12:50.717Z,42.43
2019-05-19T08:15:54.393Z,43.44
2019-05-19T08:18:58.032Z,43.08
2019-05-19T08:22:01.691Z,44.34
2019-05-19T08:25:08.609Z,46.97
2019-05-19T08:28:13.951Z,45.39
2019-05-19T08:31:17.640Z,45.04
2019-05-19T08:34:21.374Z,43.21
2019-05-19T08:37:24.998Z,40.99
2019-05-19T08:40:28.646Z,40.52
2019-05-19T08:43:32.349Z,43.83
2019-05-19T08:46:36.382Z,43.26
2019-05-19T08:49:42.919Z,41.76
2019-05-19T08:52:46.719Z,42.07
2019-05-19T08:55:50.384Z,41.96
2019-05-19T08:58:55.615Z,41.42
2019-05-19T09:02:00.959Z,39.66
2019-05-19T09:05:06.295Z,39.66
2019-05-19T09:08:10.012Z,42.69
2019-05-19T09:11:13.672Z,42.20
2019-05-19T09:14:17.299Z,40.56
2019-05-19T09:17:20.960Z,39.59
2019-05-19T09:20:24.602Z,40.43
2019-05-19T09:23:28.306Z,40.09
2019-05-19T09:26:31.934Z,38.39
2019-05-19T09:29:35.646Z,39.26
2019-05-19T09:32:39.320Z,40.17
2019-05-19T09:35:43.057Z,39.44
2019-05-19T09:38:46.814Z,39.16
2019-05-19T09:41:50.647Z,39.12
2019-05-19T09:44:54.347Z,39.58
2019-05-19T09:47:57.967Z,40.27
2019-05-19T09:51:01.613Z,38.10
2019-05-19T09:54:05.264Z,37.98
2019-05-19T09:57:08.924Z,39.18
2019-05-19T10:00:12.885Z,36.33
2019-05-19T10:03:19.536Z,34.97
2019-05-19T10:06:22.033Z,33.86
2019-05-19T10:09:47.503Z,34.75
2019-05-19T10:12:51.181Z,33.91
2019-05-19T10:15:54.867Z,32.91
2019-05-19T10:18:58.508Z,33.90
2019-05-19T10:22:02.180Z,33.29
2019-05-19T10:25:20.955Z,29.96
2019-05-19T10:28:13.474Z,30.29
2019-05-19T10:31:17.113Z,31.72
2019-05-19T10:34:20.886Z,30.26
2019-05-19T10:37:24.506Z,31.90
2019-05-19T10:40:28.393Z,28.95
2019-05-19T10:43:32.110Z,26.93
2019-05-19T10:46:35.753Z,28.31
2019-05-19T10:49:39.392Z,26.29
2019-05-19T10:52:43.149Z,25.74
2019-05-19T10:55:46.772Z,25.28
2019-05-19T10:58:50.518Z,30.71
2019-05-19T11:01:54.150Z,31.92
2019-05-19T11:04:57.832Z,29.00
2019-05-19T11:08:01.459Z,29.76
2019-05-19T11:11:05.141Z,28.71
2019-05-19T11:14:08.855Z,29.81
2019-05-19T11:17:12.526Z,29.67
2019-05-19T11:20:16.267Z,29.74
2019-05-19T11:23:19.981Z,31.23
2019-05-19T11:26:23.696Z,29.89
2019-05-19T11:29:27.394Z,26.71
2019-05-19T11:32:31.149Z,25.91
2019-05-19T11:35:34.840Z,26.92
2019-05-19T11:38:38.514Z,27.22
2019-05-19T11:41:42.219Z,29.82
2019-05-19T11:44:45.879Z,27.87
2019-05-19T11:47:49.513Z,26.58
2019-05-19T11:50:53.222Z,26.33
2019-05-19T11:53:56.892Z,27.52
2019-05-19T11:57:00.554Z,26.86
2019-05-19T12:00:05.999Z,28.75
2019-05-19T12:03:09.733Z,29.23
2019-05-19T12:06:13.419Z,27.52
2019-05-19T12:09:17.054Z,27.56
2019-05-19T12:12:26.498Z,29.30
2019-05-19T12:15:31.391Z,30.70
2019-05-19T12:18:34.974Z,32.30
2019-05-19T12:21:38.618Z,30.18
2019-05-19T12:24:42.310Z,27.49
2019-05-19T12:27:46.412Z,31.58
2019-05-19T12:30:50.080Z,31.79
2019-05-19T12:33:53.774Z,31.09
2019-05-19T12:36:57.548Z,31.68
2019-05-19T12:40:02.346Z,32.79
2019-05-19T12:43:07.523Z,33.27
2019-05-19T12:46:16.468Z,30.96
2019-05-19T12:49:18.153Z,28.60
2019-05-19T12:52:21.854Z,31.35
2019-05-19T12:55:25.518Z,32.76
2019-05-19T12:58:29.173Z,30.02
2019-05-19T13:01:32.888Z,31.47
2019-05-19T13:04:36.538Z,27.89
2019-05-19T13:07:40.179Z,27.95
2019-05-19T13:10:43.902Z,28.36
2019-05-19T13:13:47.555Z,28.35
2019-05-19T13:16:51.205Z,27.16
2019-05-19T13:19:54.921Z,26.67
2019-05-19T13:22:59.693Z,27.36
2019-05-19T13:26:03.465Z,29.98
2019-05-19T13:29:09.578Z,32.02
2019-05-19T13:32:14.164Z,28.92
2019-05-19T13:35:17.932Z,31.79
2019-05-19T13:38:21.687Z,29.81
2019-05-19T13:41:25.317Z,30.72
2019-05-19T13:44:29.872Z,29.09
2019-05-19T13:47:33.686Z,29.32
2019-05-19T13:50:37.385Z,29.07
2019-05-19T13:53:41.038Z,29.52
2019-05-19T13:56:44.691Z,27.62
2019-05-19T13:59:48.415Z,28.36
2019-05-19T14:02:52.045Z,26.16
2019-05-19T14:05:55.719Z,28.13
2019-05-19T14:08:59.352Z,27.87
2019-05-19T14:12:02.984Z,28.87
2019-05-19T14:15:08.040Z,28.57
2019-05-19T14:18:11.706Z,29.69
2019-05-19T14:21:15.327Z,32.56
2019-05-19T14:24:19.215Z,34.00
2019-05-19T14:27:30.610Z,35.41
2019-05-19T14:30:28.267Z,35.64
2019-05-19T14:33:31.938Z,36.44
2019-05-19T14:36:35.585Z,37.01
2019-05-19T14:39:40.996Z,38.10
2019-05-19T14:42:46.293Z,37.83
2019-05-19T14:45:49.945Z,37.86
2019-05-19T14:48:53.600Z,37.05
2019-05-19T14:51:57.217Z,37.55
2019-05-19T14:55:00.864Z,36.69
2019-05-19T14:58:04.482Z,37.47
2019-05-19T15:01:08.150Z,37.68
2019-05-19T15:04:11.749Z,37.52
2019-05-19T15:07:15.432Z,37.01
2019-05-19T15:10:20.036Z,36.82
2019-05-19T15:13:23.722Z,36.90
2019-05-19T15:16:27.382Z,37.33
2019-05-19T15:19:31.019Z,36.91
2019-05-19T15:22:34.714Z,37.19
2019-05-19T15:25:38.370Z,36.91
2019-05-19T15:28:41.994Z,36.98
2019-05-19T15:31:48.867Z,36.49
2019-05-19T15:34:52.513Z,37.14
2019-05-19T15:37:56.124Z,37.43
2019-05-19T15:40:59.765Z,37.04
2019-05-19T15:44:03.504Z,37.37
2019-05-19T15:47:07.190Z,37.07
2019-05-19T15:50:11.256Z,36.29
2019-05-19T15:53:14.952Z,35.95
2019-05-19T15:56:18.617Z,36.66
2019-05-19T15:59:22.307Z,36.99
2019-05-19T16:02:25.939Z,37.13
2019-05-19T16:05:29.625Z,37.68
2019-05-19T16:08:33.289Z,37.98
2019-05-19T16:11:36.969Z,38.16
2019-05-19T16:14:40.786Z,38.37
2019-05-19T16:17:44.536Z,37.59
2019-05-19T16:20:48.185Z,37.19
2019-05-19T16:23:51.956Z,37.34
2019-05-19T16:26:55.665Z,37.27
2019-05-19T16:29:59.370Z,36.77
2019-05-19T16:33:03.023Z,37.17
2019-05-19T16:36:08.026Z,37.17
2019-05-19T16:39:11.767Z,37.01
2019-05-19T16:42:15.374Z,37.66
2019-05-19T16:45:19.591Z,37.69
2019-05-19T16:48:23.548Z,37.78
2019-05-19T16:51:27.307Z,37.46
2019-05-19T16:54:47.699Z,37.71
2019-05-19T16:57:51.364Z,37.61
2019-05-19T17:00:54.994Z,37.79
2019-05-19T17:03:58.813Z,37.87
2019-05-19T17:07:03.060Z,38.52
2019-05-19T17:10:09.222Z,38.12
2019-05-19T17:13:12.870Z,37.75
2019-05-19T17:16:16.469Z,38.41
2019-05-19T17:19:20.125Z,38.06
2019-05-19T17:22:23.776Z,38.10
2019-05-19T17:25:27.511Z,38.40
2019-05-19T17:28:31.155Z,38.11
2019-05-19T17:31:34.770Z,38.14
2019-05-19T17:34:38.451Z,38.07
2019-05-19T17:37:42.032Z,38.21
2019-05-19T17:40:45.686Z,38.29
2019-05-19T17:43:49.302Z,38.64
2019-05-19T17:46:53.001Z,38.95
2019-05-19T17:49:56.596Z,38.96
2019-05-19T17:53:00.431Z,39.41
2019-05-19T17:56:04.497Z,39.46
2019-05-19T17:59:16.165Z,39.60
2019-05-19T18:02:13.614Z,39.62
2019-05-19T18:05:17.334Z,39.58
2019-05-19T18:08:20.959Z,40.29
2019-05-19T18:11:24.612Z,41.04
2019-05-19T18:14:28.270Z,41.23
2019-05-19T18:17:31.943Z,41.57
2019-05-19T18:20:35.610Z,41.29
2019-05-19T18:23:39.244Z,41.45
2019-05-19T18:26:42.873Z,41.61
2019-05-19T18:29:46.525Z,41.13
2019-05-19T18:32:50.187Z,41.03
2019-05-19T18:35:53.838Z,40.85
2019-05-19T18:38:57.497Z,40.71
2019-05-19T18:42:01.111Z,40.65
2019-05-19T18:45:06.012Z,41.24
2019-05-19T18:48:09.744Z,41.42
2019-05-19T18:51:13.358Z,41.94
2019-05-19T18:54:17.022Z,42.68
2019-05-19T18:57:20.652Z,42.86
2019-05-19T19:00:35.317Z,43.22
2019-05-19T19:03:39.022Z,43.72
2019-05-19T19:06:42.741Z,44.24
2019-05-19T19:09:46.466Z,44.56
2019-05-19T19:12:51.743Z,45.41
2019-05-19T19:15:58.026Z,46.30
2019-05-19T19:19:01.716Z,46.87
2019-05-19T19:22:07.859Z,47.55
2019-05-19T19:25:12.476Z,47.83
2019-05-19T19:28:16.227Z,47.87
2019-05-19T19:31:19.911Z,47.82
2019-05-19T19:34:23.592Z,48.30
2019-05-19T19:37:27.297Z,53.53
2019-05-19T19:40:31.839Z,54.74
2019-05-19T19:43:35.465Z,56.03
2019-05-19T19:46:39.134Z,55.52
2019-05-19T19:49:42.804Z,52.40
2019-05-19T19:52:46.435Z,52.66
2019-05-19T19:55:50.203Z,55.60
2019-05-19T19:58:54.767Z,54.52
2019-05-19T20:01:58.451Z,53.20
2019-05-19T20:05:02.129Z,53.01
2019-05-19T20:08:06.841Z,52.71
2019-05-19T20:11:10.457Z,52.92
2019-05-19T20:14:14.182Z,52.58
2019-05-19T20:17:17.806Z,52.62
2019-05-19T20:20:24.106Z,52.48
2019-05-19T20:23:26.849Z,53.66
2019-05-19T20:26:30.526Z,53.23
2019-05-19T20:29:34.178Z,53.92
2019-05-19T20:32:37.848Z,53.37
2019-05-19T20:35:44.304Z,52.48
2019-05-19T20:38:49.577Z,52.84
2019-05-19T20:41:55.116Z,53.53
2019-05-19T20:45:00.290Z,53.78
2019-05-19T20:48:10.574Z,54.01
2019-05-19T20:51:15.780Z,54.18
2019-05-19T20:54:19.443Z,54.61
2019-05-19T20:57:23.084Z,55.37
2019-05-19T21:00:28.694Z,54.99
2019-05-19T21:03:32.298Z,55.22
2019-05-19T21:06:35.962Z,55.90
2019-05-19T21:09:39.617Z,56.44
2019-05-19T21:12:46.150Z,56.90
2019-05-19T21:15:51.473Z,57.04
2019-05-19T21:18:55.175Z,57.52
2019-05-19T21:22:01.188Z,58.03
2019-05-19T21:25:06.762Z,58.19
2019-05-19T21:28:10.408Z,58.76
2019-05-19T21:31:14.106Z,59.31
2019-05-19T21:34:17.752Z,59.87
2019-05-19T21:37:21.406Z,60.30
2019-05-19T21:40:25.047Z,60.83
2019-05-19T21:43:28.701Z,61.36
2019-05-19T21:46:32.349Z,61.58
2019-05-19T21:49:36.009Z,62.33
2019-05-19T21:52:43.354Z,62.58
2019-05-19T21:55:46.964Z,62.99
2019-05-19T21:58:50.690Z,63.41
2019-05-19T22:01:54.627Z,63.80
2019-05-19T22:05:01.410Z,64.37
2019-05-19T22:08:08.152Z,64.56
2019-05-19T22:11:11.801Z,65.01
2019-05-19T22:14:15.429Z,65.20
2019-05-19T22:17:19.114Z,65.75
2019-05-19T22:20:22.774Z,66.24
2019-05-19T22:23:26.447Z,66.60
2019-05-19T22:26:31.763Z,66.99
2019-05-19T22:29:35.403Z,67.76
2019-05-19T22:32:39.047Z,68.11
2019-05-19T22:35:42.690Z,68.08
2019-05-19T22:38:46.426Z,68.40
2019-05-19T22:41:50.172Z,68.49
2019-05-19T22:44:53.886Z,68.38
2019-05-19T22:47:57.600Z,67.88
2019-05-19T22:51:01.315Z,68.00
2019-05-19T22:54:05.041Z,67.53
2019-05-19T22:57:08.692Z,66.97
2019-05-19T23:00:13.869Z,66.91
2019-05-19T23:03:17.540Z,67.01
2019-05-19T23:06:21.229Z,66.99
2019-05-19T23:09:24.958Z,67.06
2019-05-19T23:12:28.600Z,67.26
2019-05-19T23:15:34.803Z,67.34
2019-05-19T23:18:38.895Z,67.62
2019-05-19T23:21:44.085Z,67.61
2019-05-19T23:24:49.198Z,67.85
2019-05-19T23:27:54.450Z,67.84
2019-05-19T23:30:58.101Z,68.19
2019-05-19T23:34:03.811Z,68.10
2019-05-19T23:37:16.053Z,67.97
2019-05-19T23:40:18.856Z,68.20
2019-05-19T23:43:21.609Z,68.61
2019-05-19T23:46:25.373Z,68.86
2019-05-19T23:49:30.911Z,68.98
2019-05-19T23:52:37.255Z,68.86
2019-05-19T23:55:43.901Z,69.01
2019-05-19T23:58:47.568Z,69.05
